In Rescue
 
Open Full Screen Window  High Contrast Mode
Wind Gusting 00 knots
05
March 19, 2019 7:20 PM EDT
Weather Information
Wind Direction
  280 °
Wind Speed
  05 kt (6 mph)
Wind Gust
  00 kt (0 mph)
Altimeter
30.35 in
Visibility
10 SM
Temperature
06° C
43° F
Dewpoint
-04° C
25° F
Humidity
49%
1hr Rain Fall
00.00 in.
24hr Rain Fall
00.00 in.
Sky Condition
Clear
VFR

METAR KMRT 192320Z AUTO 28005KT 10SM CLR 06/M04 A3035 RMK AO2 T00601039

FAA Disclaimer: The data displayed is for advisory purposes only and is not to be used for flight planning or operations.